Terminal Aerodrome Forecast
Issued by NWS

Home | Current Version | Previous Version | Text Only | Print | Product List | Glossary Off
Versions: 1 2 3 4 5 6 7 8 9 10 11 12 13 14 15 16 17 18 19 20 21 22

000
FTUS43 KAPX 300500
TAFTVC
TAF
KTVC 300520Z 3006/3106 33003KT P6SM SCT070
     FM301100 00000KT 6SM BR SCT002
     FM301400 30008KT P6SM FEW060 SCT250
     FM302200 30008KT P6SM BKN080
     FM310200 00000KT P6SM BKN070=

USA.gov is the U.S. government's official web portal to all federal, state and local government web resources and services.